sensor_id;sensor_type;location;lat;lon;timestamp;P1;durP1;ratioP1;P2;durP2;ratioP2
21339;SDS011;10828;47.064;15.422;2023-06-10T10:38:04;14.03;;;8.47;;
21339;SDS011;10828;47.064;15.422;2023-06-10T10:40:34;16.20;;;8.73;;
21339;SDS011;10828;47.064;15.422;2023-06-10T10:43:00;12.50;;;8.70;;
21339;SDS011;10828;47.064;15.422;2023-06-10T10:45:31;12.13;;;7.50;;
21339;SDS011;10828;47.064;15.422;2023-06-10T10:47:59;12.73;;;7.70;;
21339;SDS011;10828;47.064;15.422;2023-06-10T10:50:34;14.33;;;7.70;;
21339;SDS011;10828;47.064;15.422;2023-06-10T10:55:32;11.50;;;7.57;;
21339;SDS011;10828;47.064;15.422;2023-06-10T10:58:03;12.40;;;7.47;;
21339;SDS011;10828;47.064;15.422;2023-06-10T11:00:30;11.17;;;6.90;;
21339;SDS011;10828;47.064;15.422;2023-06-10T11:03:05;11.23;;;7.47;;
21339;SDS011;10828;47.064;15.422;2023-06-10T11:05:39;11.63;;;7.53;;
21339;SDS011;10828;47.064;15.422;2023-06-10T11:08:13;10.77;;;6.60;;
21339;SDS011;10828;47.064;15.422;2023-06-10T11:10:50;11.87;;;6.93;;
21339;SDS011;10828;47.064;15.422;2023-06-10T11:13:21;12.90;;;7.70;;
21339;SDS011;10828;47.064;15.422;2023-06-10T11:15:47;11.67;;;7.23;;
21339;SDS011;10828;47.064;15.422;2023-06-10T11:21:04;12.23;;;6.30;;
21339;SDS011;10828;47.064;15.422;2023-06-10T11:23:33;9.87;;;6.57;;
21339;SDS011;10828;47.064;15.422;2023-06-10T11:31:22;10.07;;;6.20;;
21339;SDS011;10828;47.064;15.422;2023-06-10T11:33:52;10.17;;;6.90;;
21339;SDS011;10828;47.064;15.422;2023-06-10T11:36:19;9.03;;;6.57;;
21339;SDS011;10828;47.064;15.422;2023-06-10T11:38:45;11.63;;;6.27;;
21339;SDS011;10828;47.064;15.422;2023-06-10T11:41:14;9.43;;;6.20;;
21339;SDS011;10828;47.064;15.422;2023-06-10T11:43:42;11.03;;;6.90;;
21339;SDS011;10828;47.064;15.422;2023-06-10T11:46:13;11.03;;;6.37;;
21339;SDS011;10828;47.064;15.422;2023-06-10T11:49:01;11.10;;;6.77;;
21339;SDS011;10828;47.064;15.422;2023-06-10T11:51:29;10.70;;;6.47;;
21339;SDS011;10828;47.064;15.422;2023-06-10T11:54:08;11.47;;;6.60;;
21339;SDS011;10828;47.064;15.422;2023-06-10T11:56:36;9.07;;;6.03;;
21339;SDS011;10828;47.064;15.422;2023-06-10T11:59:03;9.87;;;6.50;;
21339;SDS011;10828;47.064;15.422;2023-06-10T12:01:33;11.97;;;5.93;;
21339;SDS011;10828;47.064;15.422;2023-06-10T12:04:09;10.47;;;6.07;;
21339;SDS011;10828;47.064;15.422;2023-06-10T12:06:44;11.67;;;6.50;;
21339;SDS011;10828;47.064;15.422;2023-06-10T12:09:14;11.00;;;6.20;;
21339;SDS011;10828;47.064;15.422;2023-06-10T12:11:43;11.43;;;6.50;;
21339;SDS011;10828;47.064;15.422;2023-06-10T12:14:11;7.63;;;5.40;;
21339;SDS011;10828;47.064;15.422;2023-06-10T12:16:37;9.47;;;5.57;;
21339;SDS011;10828;47.064;15.422;2023-06-10T12:19:04;8.63;;;5.77;;
21339;SDS011;10828;47.064;15.422;2023-06-10T12:21:33;8.33;;;5.60;;
21339;SDS011;10828;47.064;15.422;2023-06-10T12:26:38;11.73;;;6.07;;
21339;SDS011;10828;47.064;15.422;2023-06-10T12:29:17;7.00;;;4.90;;
21339;SDS011;10828;47.064;15.422;2023-06-10T12:34:32;7.13;;;4.93;;
21339;SDS011;10828;47.064;15.422;2023-06-10T12:37:05;10.17;;;5.60;;
21339;SDS011;10828;47.064;15.422;2023-06-10T12:39:50;10.97;;;5.00;;
21339;SDS011;10828;47.064;15.422;2023-06-10T12:42:22;7.77;;;4.70;;
21339;SDS011;10828;47.064;15.422;2023-06-10T12:44:54;7.97;;;4.90;;
21339;SDS011;10828;47.064;15.422;2023-06-10T12:47:28;12.20;;;5.17;;
21339;SDS011;10828;47.064;15.422;2023-06-10T12:50:00;8.00;;;5.00;;
21339;SDS011;10828;47.064;15.422;2023-06-10T12:52:28;17.67;;;5.73;;
21339;SDS011;10828;47.064;15.422;2023-06-10T12:54:55;10.23;;;5.17;;
21339;SDS011;10828;47.064;15.422;2023-06-10T12:57:22;10.03;;;5.40;;
21339;SDS011;10828;47.064;15.422;2023-06-10T12:59:48;8.63;;;5.87;;
21339;SDS011;10828;47.064;15.422;2023-06-10T13:02:20;7.43;;;5.13;;
21339;SDS011;10828;47.064;15.422;2023-06-10T13:04:50;8.23;;;4.97;;
21339;SDS011;10828;47.064;15.422;2023-06-10T13:07:16;9.83;;;5.13;;
21339;SDS011;10828;47.064;15.422;2023-06-10T13:09:42;11.33;;;5.33;;
21339;SDS011;10828;47.064;15.422;2023-06-10T13:12:16;10.70;;;6.10;;
21339;SDS011;10828;47.064;15.422;2023-06-10T13:14:43;8.23;;;4.87;;
21339;SDS011;10828;47.064;15.422;2023-06-10T13:17:12;12.40;;;5.63;;
21339;SDS011;10828;47.064;15.422;2023-06-10T13:19:38;10.27;;;5.07;;
21339;SDS011;10828;47.064;15.422;2023-06-10T13:22:07;12.60;;;5.80;;
21339;SDS011;10828;47.064;15.422;2023-06-10T13:24:34;10.40;;;5.53;;
21339;SDS011;10828;47.064;15.422;2023-06-10T13:27:00;8.40;;;5.40;;
21339;SDS011;10828;47.064;15.422;2023-06-10T13:29:29;8.13;;;5.27;;
21339;SDS011;10828;47.064;15.422;2023-06-10T13:31:58;9.50;;;4.90;;
21339;SDS011;10828;47.064;15.422;2023-06-10T13:34:32;7.97;;;5.30;;
21339;SDS011;10828;47.064;15.422;2023-06-10T13:36:57;10.20;;;5.00;;
21339;SDS011;10828;47.064;15.422;2023-06-10T13:39:24;8.17;;;5.17;;
21339;SDS011;10828;47.064;15.422;2023-06-10T13:44:38;8.20;;;5.27;;
21339;SDS011;10828;47.064;15.422;2023-06-10T13:47:06;10.40;;;5.50;;
21339;SDS011;10828;47.064;15.422;2023-06-10T13:49:33;7.70;;;4.77;;
21339;SDS011;10828;47.064;15.422;2023-06-10T13:51:59;7.97;;;4.90;;
21339;SDS011;10828;47.064;15.422;2023-06-10T13:54:29;11.20;;;5.53;;
21339;SDS011;10828;47.064;15.422;2023-06-10T13:56:55;5.77;;;3.63;;
21339;SDS011;10828;47.064;15.422;2023-06-10T13:59:22;8.97;;;3.87;;
21339;SDS011;10828;47.064;15.422;2023-06-10T14:01:48;8.83;;;4.07;;
21339;SDS011;10828;47.064;15.422;2023-06-10T14:04:14;6.60;;;3.80;;
21339;SDS011;10828;47.064;15.422;2023-06-10T14:06:40;7.07;;;3.93;;
21339;SDS011;10828;47.064;15.422;2023-06-10T14:09:08;6.30;;;3.70;;
21339;SDS011;10828;47.064;15.422;2023-06-10T14:11:34;8.83;;;4.10;;
21339;SDS011;10828;47.064;15.422;2023-06-10T14:16:31;6.67;;;4.47;;
21339;SDS011;10828;47.064;15.422;2023-06-10T14:21:25;7.03;;;4.30;;
21339;SDS011;10828;47.064;15.422;2023-06-10T14:23:53;8.17;;;4.60;;
21339;SDS011;10828;47.064;15.422;2023-06-10T14:26:28;11.43;;;4.83;;
21339;SDS011;10828;47.064;15.422;2023-06-10T14:28:54;9.33;;;4.37;;
21339;SDS011;10828;47.064;15.422;2023-06-10T14:31:27;9.50;;;5.50;;
21339;SDS011;10828;47.064;15.422;2023-06-10T14:33:53;7.50;;;4.60;;
21339;SDS011;10828;47.064;15.422;2023-06-10T14:36:18;10.77;;;5.67;;
21339;SDS011;10828;47.064;15.422;2023-06-10T14:38:44;9.20;;;5.13;;
21339;SDS011;10828;47.064;15.422;2023-06-10T14:41:12;9.47;;;5.87;;
21339;SDS011;10828;47.064;15.422;2023-06-10T14:43:38;6.87;;;4.53;;
21339;SDS011;10828;47.064;15.422;2023-06-10T14:46:07;11.00;;;4.70;;
21339;SDS011;10828;47.064;15.422;2023-06-10T14:48:33;9.57;;;4.50;;
21339;SDS011;10828;47.064;15.422;2023-06-10T14:50:59;10.23;;;5.40;;
21339;SDS011;10828;47.064;15.422;2023-06-10T14:53:25;8.57;;;5.23;;
21339;SDS011;10828;47.064;15.422;2023-06-10T14:58:22;7.17;;;4.13;;
21339;SDS011;10828;47.064;15.422;2023-06-10T15:00:48;9.83;;;5.07;;
21339;SDS011;10828;47.064;15.422;2023-06-10T15:03:16;8.87;;;4.73;;
21339;SDS011;10828;47.064;15.422;2023-06-10T15:05:43;10.37;;;4.70;;
21339;SDS011;10828;47.064;15.422;2023-06-10T15:08:08;6.90;;;4.53;;
21339;SDS011;10828;47.064;15.422;2023-06-10T15:10:36;8.90;;;3.90;;
21339;SDS011;10828;47.064;15.422;2023-06-10T15:13:02;8.03;;;4.30;;
21339;SDS011;10828;47.064;15.422;2023-06-10T15:15:41;6.10;;;3.67;;
21339;SDS011;10828;47.064;15.422;2023-06-10T15:18:09;6.80;;;4.33;;
21339;SDS011;10828;47.064;15.422;2023-06-10T15:20:36;7.50;;;4.40;;
21339;SDS011;10828;47.064;15.422;2023-06-10T15:23:08;8.63;;;4.10;;
21339;SDS011;10828;47.064;15.422;2023-06-10T15:25:43;7.73;;;4.47;;
21339;SDS011;10828;47.064;15.422;2023-06-10T15:28:09;8.13;;;4.50;;
21339;SDS011;10828;47.064;15.422;2023-06-10T15:30:37;10.40;;;4.90;;
21339;SDS011;10828;47.064;15.422;2023-06-10T15:33:05;6.90;;;4.30;;
21339;SDS011;10828;47.064;15.422;2023-06-10T15:35:34;7.13;;;4.23;;
21339;SDS011;10828;47.064;15.422;2023-06-10T15:38:02;8.07;;;4.50;;
21339;SDS011;10828;47.064;15.422;2023-06-10T15:40:27;8.87;;;4.70;;
21339;SDS011;10828;47.064;15.422;2023-06-10T15:42:58;9.20;;;4.43;;
21339;SDS011;10828;47.064;15.422;2023-06-10T15:45:37;8.00;;;4.43;;
21339;SDS011;10828;47.064;15.422;2023-06-10T15:48:04;7.70;;;5.20;;
21339;SDS011;10828;47.064;15.422;2023-06-10T15:50:30;7.07;;;4.50;;
21339;SDS011;10828;47.064;15.422;2023-06-10T15:52:57;8.67;;;4.87;;
21339;SDS011;10828;47.064;15.422;2023-06-10T15:55:31;10.97;;;6.80;;
21339;SDS011;10828;47.064;15.422;2023-06-10T15:57:59;10.90;;;5.10;;
21339;SDS011;10828;47.064;15.422;2023-06-10T16:00:29;7.20;;;4.67;;
21339;SDS011;10828;47.064;15.422;2023-06-10T16:02:55;7.73;;;4.60;;
21339;SDS011;10828;47.064;15.422;2023-06-10T16:05:44;7.53;;;4.70;;
21339;SDS011;10828;47.064;15.422;2023-06-10T16:08:10;7.33;;;4.70;;
21339;SDS011;10828;47.064;15.422;2023-06-10T16:10:38;11.37;;;5.27;;
21339;SDS011;10828;47.064;15.422;2023-06-10T16:13:05;8.00;;;5.00;;
21339;SDS011;10828;47.064;15.422;2023-06-10T16:15:31;9.27;;;5.70;;
21339;SDS011;10828;47.064;15.422;2023-06-10T16:17:57;13.53;;;5.43;;
21339;SDS011;10828;47.064;15.422;2023-06-10T16:20:43;12.03;;;5.30;;
21339;SDS011;10828;47.064;15.422;2023-06-10T16:23:13;12.50;;;4.80;;
21339;SDS011;10828;47.064;15.422;2023-06-10T16:25:41;9.90;;;5.57;;
21339;SDS011;10828;47.064;15.422;2023-06-10T16:28:08;8.07;;;4.90;;
21339;SDS011;10828;47.064;15.422;2023-06-10T16:30:40;12.03;;;5.37;;
21339;SDS011;10828;47.064;15.422;2023-06-10T16:33:06;10.70;;;5.30;;
21339;SDS011;10828;47.064;15.422;2023-06-10T16:35:31;8.97;;;5.60;;
21339;SDS011;10828;47.064;15.422;2023-06-10T16:37:57;15.27;;;5.97;;
21339;SDS011;10828;47.064;15.422;2023-06-10T16:40:23;9.67;;;5.23;;
21339;SDS011;10828;47.064;15.422;2023-06-10T16:42:51;10.03;;;5.90;;
21339;SDS011;10828;47.064;15.422;2023-06-10T16:45:20;9.67;;;5.70;;
21339;SDS011;10828;47.064;15.422;2023-06-10T16:47:46;9.50;;;6.07;;
21339;SDS011;10828;47.064;15.422;2023-06-10T16:50:13;9.93;;;5.07;;
21339;SDS011;10828;47.064;15.422;2023-06-10T16:52:41;8.67;;;5.30;;
21339;SDS011;10828;47.064;15.422;2023-06-10T16:55:15;13.37;;;6.07;;
21339;SDS011;10828;47.064;15.422;2023-06-10T16:57:41;9.97;;;5.77;;
21339;SDS011;10828;47.064;15.422;2023-06-10T17:00:12;9.30;;;5.47;;
21339;SDS011;10828;47.064;15.422;2023-06-10T17:02:38;8.93;;;6.20;;
21339;SDS011;10828;47.064;15.422;2023-06-10T17:05:07;13.27;;;6.17;;
21339;SDS011;10828;47.064;15.422;2023-06-10T17:07:33;11.43;;;6.07;;
21339;SDS011;10828;47.064;15.422;2023-06-10T17:09:59;13.60;;;6.70;;
21339;SDS011;10828;47.064;15.422;2023-06-10T17:12:28;10.00;;;6.27;;
21339;SDS011;10828;47.064;15.422;2023-06-10T17:15:10;11.10;;;6.03;;
21339;SDS011;10828;47.064;15.422;2023-06-10T17:22:38;9.53;;;5.87;;
21339;SDS011;10828;47.064;15.422;2023-06-10T17:25:06;9.70;;;6.23;;
21339;SDS011;10828;47.064;15.422;2023-06-10T17:27:41;10.20;;;6.07;;
21339;SDS011;10828;47.064;15.422;2023-06-10T17:30:08;11.30;;;6.50;;
21339;SDS011;10828;47.064;15.422;2023-06-10T17:32:34;12.10;;;6.33;;
21339;SDS011;10828;47.064;15.422;2023-06-10T17:35:00;10.17;;;6.13;;
21339;SDS011;10828;47.064;15.422;2023-06-10T17:37:30;9.53;;;6.00;;
21339;SDS011;10828;47.064;15.422;2023-06-10T17:39:58;9.40;;;6.00;;
21339;SDS011;10828;47.064;15.422;2023-06-10T17:42:25;10.37;;;6.80;;
21339;SDS011;10828;47.064;15.422;2023-06-10T17:47:22;11.40;;;6.57;;
21339;SDS011;10828;47.064;15.422;2023-06-10T17:49:49;13.23;;;7.57;;
21339;SDS011;10828;47.064;15.422;2023-06-10T17:52:23;11.67;;;7.47;;
21339;SDS011;10828;47.064;15.422;2023-06-10T17:54:52;10.80;;;6.47;;
21339;SDS011;10828;47.064;15.422;2023-06-10T17:59:55;10.63;;;6.80;;
21339;SDS011;10828;47.064;15.422;2023-06-10T18:02:22;10.47;;;6.33;;
21339;SDS011;10828;47.064;15.422;2023-06-10T18:04:49;9.93;;;6.43;;
21339;SDS011;10828;47.064;15.422;2023-06-10T18:07:17;9.13;;;6.00;;
21339;SDS011;10828;47.064;15.422;2023-06-10T18:09:44;9.47;;;5.53;;
21339;SDS011;10828;47.064;15.422;2023-06-10T18:12:11;9.57;;;5.00;;
21339;SDS011;10828;47.064;15.422;2023-06-10T18:14:37;8.67;;;5.23;;
21339;SDS011;10828;47.064;15.422;2023-06-10T18:17:06;10.13;;;5.50;;
21339;SDS011;10828;47.064;15.422;2023-06-10T18:19:34;8.00;;;5.20;;
21339;SDS011;10828;47.064;15.422;2023-06-10T18:22:01;7.93;;;4.90;;
21339;SDS011;10828;47.064;15.422;2023-06-10T18:24:30;8.60;;;5.57;;
21339;SDS011;10828;47.064;15.422;2023-06-10T18:27:04;11.87;;;5.30;;
21339;SDS011;10828;47.064;15.422;2023-06-10T18:29:32;9.17;;;5.03;;
21339;SDS011;10828;47.064;15.422;2023-06-10T18:31:58;10.17;;;4.77;;
21339;SDS011;10828;47.064;15.422;2023-06-10T18:34:27;6.97;;;4.53;;
21339;SDS011;10828;47.064;15.422;2023-06-10T18:36:54;9.17;;;5.17;;
21339;SDS011;10828;47.064;15.422;2023-06-10T18:41:51;17.77;;;9.47;;
21339;SDS011;10828;47.064;15.422;2023-06-10T18:44:18;12.80;;;6.27;;
21339;SDS011;10828;47.064;15.422;2023-06-10T18:46:46;10.37;;;6.30;;
21339;SDS011;10828;47.064;15.422;2023-06-10T18:49:16;12.43;;;5.27;;
21339;SDS011;10828;47.064;15.422;2023-06-10T18:51:42;9.73;;;5.57;;
21339;SDS011;10828;47.064;15.422;2023-06-10T18:54:09;11.53;;;6.20;;
21339;SDS011;10828;47.064;15.422;2023-06-10T18:56:36;8.73;;;5.73;;
21339;SDS011;10828;47.064;15.422;2023-06-10T18:59:02;11.67;;;6.20;;
21339;SDS011;10828;47.064;15.422;2023-06-10T19:01:28;14.90;;;6.60;;
21339;SDS011;10828;47.064;15.422;2023-06-10T19:03:54;11.20;;;6.33;;
21339;SDS011;10828;47.064;15.422;2023-06-10T19:06:20;12.83;;;6.43;;
21339;SDS011;10828;47.064;15.422;2023-06-10T19:08:46;12.33;;;6.23;;
21339;SDS011;10828;47.064;15.422;2023-06-10T19:11:14;10.73;;;5.63;;
21339;SDS011;10828;47.064;15.422;2023-06-10T19:13:39;10.90;;;5.57;;
21339;SDS011;10828;47.064;15.422;2023-06-10T19:16:07;16.73;;;7.10;;
21339;SDS011;10828;47.064;15.422;2023-06-10T19:18:39;13.40;;;6.27;;
21339;SDS011;10828;47.064;15.422;2023-06-10T19:21:06;12.80;;;6.63;;
21339;SDS011;10828;47.064;15.422;2023-06-10T19:23:31;11.10;;;6.53;;
21339;SDS011;10828;47.064;15.422;2023-06-10T19:26:08;11.30;;;6.30;;
21339;SDS011;10828;47.064;15.422;2023-06-10T19:28:34;13.07;;;6.20;;
21339;SDS011;10828;47.064;15.422;2023-06-10T19:31:02;13.60;;;6.97;;
21339;SDS011;10828;47.064;15.422;2023-06-10T19:33:30;13.20;;;6.77;;
21339;SDS011;10828;47.064;15.422;2023-06-10T19:35:58;9.93;;;5.93;;
21339;SDS011;10828;47.064;15.422;2023-06-10T19:38:25;11.83;;;5.80;;
21339;SDS011;10828;47.064;15.422;2023-06-10T19:40:53;10.17;;;6.07;;
21339;SDS011;10828;47.064;15.422;2023-06-10T19:43:18;8.97;;;4.90;;
21339;SDS011;10828;47.064;15.422;2023-06-10T19:45:47;8.93;;;5.27;;
21339;SDS011;10828;47.064;15.422;2023-06-10T19:48:15;7.60;;;4.90;;
21339;SDS011;10828;47.064;15.422;2023-06-10T19:50:41;12.57;;;6.10;;
21339;SDS011;10828;47.064;15.422;2023-06-10T19:53:08;10.60;;;6.60;;
21339;SDS011;10828;47.064;15.422;2023-06-10T19:55:38;11.67;;;6.57;;
21339;SDS011;10828;47.064;15.422;2023-06-10T19:58:05;10.70;;;5.93;;
21339;SDS011;10828;47.064;15.422;2023-06-10T20:00:32;12.37;;;6.53;;
21339;SDS011;10828;47.064;15.422;2023-06-10T20:02:59;13.97;;;6.03;;
21339;SDS011;10828;47.064;15.422;2023-06-10T20:05:26;12.03;;;6.13;;
21339;SDS011;10828;47.064;15.422;2023-06-10T20:07:59;9.70;;;6.13;;
21339;SDS011;10828;47.064;15.422;2023-06-10T20:10:31;11.53;;;6.03;;
21339;SDS011;10828;47.064;15.422;2023-06-10T20:12:58;11.50;;;6.30;;
21339;SDS011;10828;47.064;15.422;2023-06-10T20:15:25;10.10;;;6.00;;
21339;SDS011;10828;47.064;15.422;2023-06-10T20:17:51;12.80;;;6.53;;
21339;SDS011;10828;47.064;15.422;2023-06-10T20:20:18;8.73;;;5.20;;
21339;SDS011;10828;47.064;15.422;2023-06-10T20:22:45;8.17;;;4.93;;
21339;SDS011;10828;47.064;15.422;2023-06-10T20:25:13;11.90;;;5.10;;
21339;SDS011;10828;47.064;15.422;2023-06-10T20:27:41;10.67;;;4.70;;
21339;SDS011;10828;47.064;15.422;2023-06-10T20:30:10;8.50;;;4.57;;
21339;SDS011;10828;47.064;15.422;2023-06-10T20:32:53;7.67;;;4.73;;
21339;SDS011;10828;47.064;15.422;2023-06-10T20:35:27;10.33;;;4.23;;
21339;SDS011;10828;47.064;15.422;2023-06-10T20:38:07;7.10;;;3.80;;
21339;SDS011;10828;47.064;15.422;2023-06-10T20:40:35;7.73;;;3.90;;
21339;SDS011;10828;47.064;15.422;2023-06-10T20:43:02;5.77;;;3.67;;
21339;SDS011;10828;47.064;15.422;2023-06-10T20:45:34;8.37;;;4.30;;
21339;SDS011;10828;47.064;15.422;2023-06-10T20:48:01;9.53;;;4.60;;
21339;SDS011;10828;47.064;15.422;2023-06-10T20:50:27;9.33;;;4.30;;
21339;SDS011;10828;47.064;15.422;2023-06-10T20:52:56;7.37;;;4.07;;
21339;SDS011;10828;47.064;15.422;2023-06-10T20:55:23;6.30;;;3.87;;
21339;SDS011;10828;47.064;15.422;2023-06-10T20:57:50;7.60;;;3.87;;
21339;SDS011;10828;47.064;15.422;2023-06-10T21:00:22;8.67;;;4.33;;
21339;SDS011;10828;47.064;15.422;2023-06-10T21:02:49;9.13;;;5.73;;
21339;SDS011;10828;47.064;15.422;2023-06-10T21:05:16;6.63;;;3.93;;
21339;SDS011;10828;47.064;15.422;2023-06-10T21:07:43;8.17;;;4.33;;
21339;SDS011;10828;47.064;15.422;2023-06-10T21:10:14;9.07;;;4.20;;
21339;SDS011;10828;47.064;15.422;2023-06-10T21:12:40;7.50;;;4.47;;
21339;SDS011;10828;47.064;15.422;2023-06-10T21:15:08;8.73;;;5.27;;
21339;SDS011;10828;47.064;15.422;2023-06-10T21:17:40;12.10;;;5.70;;
21339;SDS011;10828;47.064;15.422;2023-06-10T21:20:07;9.93;;;5.47;;
21339;SDS011;10828;47.064;15.422;2023-06-10T21:22:34;7.73;;;3.87;;
21339;SDS011;10828;47.064;15.422;2023-06-10T21:25:01;6.57;;;4.40;;
21339;SDS011;10828;47.064;15.422;2023-06-10T21:27:29;11.63;;;5.53;;
21339;SDS011;10828;47.064;15.422;2023-06-10T21:29:55;8.07;;;4.53;;
21339;SDS011;10828;47.064;15.422;2023-06-10T21:32:22;6.87;;;4.13;;
21339;SDS011;10828;47.064;15.422;2023-06-10T21:34:53;7.13;;;3.83;;
21339;SDS011;10828;47.064;15.422;2023-06-10T21:37:22;7.67;;;3.90;;
21339;SDS011;10828;47.064;15.422;2023-06-10T21:39:50;9.03;;;4.70;;
21339;SDS011;10828;47.064;15.422;2023-06-10T21:42:16;7.10;;;4.30;;
21339;SDS011;10828;47.064;15.422;2023-06-10T21:44:44;8.20;;;4.10;;
21339;SDS011;10828;47.064;15.422;2023-06-10T21:47:10;8.10;;;4.47;;
21339;SDS011;10828;47.064;15.422;2023-06-10T21:49:39;9.53;;;3.90;;
21339;SDS011;10828;47.064;15.422;2023-06-10T21:52:07;10.67;;;5.47;;
21339;SDS011;10828;47.064;15.422;2023-06-10T21:54:34;8.00;;;4.20;;
21339;SDS011;10828;47.064;15.422;2023-06-10T21:57:02;10.27;;;4.53;;
21339;SDS011;10828;47.064;15.422;2023-06-10T21:59:29;11.27;;;4.80;;
21339;SDS011;10828;47.064;15.422;2023-06-10T22:01:57;9.93;;;4.60;;
21339;SDS011;10828;47.064;15.422;2023-06-10T22:04:24;8.37;;;4.00;;
21339;SDS011;10828;47.064;15.422;2023-06-10T22:06:53;7.07;;;4.63;;
21339;SDS011;10828;47.064;15.422;2023-06-10T22:09:24;9.57;;;4.97;;
21339;SDS011;10828;47.064;15.422;2023-06-10T22:11:52;7.70;;;4.40;;
21339;SDS011;10828;47.064;15.422;2023-06-10T22:14:19;7.03;;;3.73;;
21339;SDS011;10828;47.064;15.422;2023-06-10T22:16:46;11.17;;;5.10;;
21339;SDS011;10828;47.064;15.422;2023-06-10T22:19:11;9.33;;;5.17;;
21339;SDS011;10828;47.064;15.422;2023-06-10T22:21:46;10.40;;;4.93;;
21339;SDS011;10828;47.064;15.422;2023-06-10T22:24:13;12.90;;;6.23;;
21339;SDS011;10828;47.064;15.422;2023-06-10T22:26:40;10.30;;;5.50;;
21339;SDS011;10828;47.064;15.422;2023-06-10T22:29:06;10.63;;;6.10;;
21339;SDS011;10828;47.064;15.422;2023-06-10T22:31:40;6.73;;;3.80;;
21339;SDS011;10828;47.064;15.422;2023-06-10T22:34:08;8.10;;;4.17;;
21339;SDS011;10828;47.064;15.422;2023-06-10T22:36:40;7.53;;;4.53;;
21339;SDS011;10828;47.064;15.422;2023-06-10T22:39:07;9.50;;;4.33;;
21339;SDS011;10828;47.064;15.422;2023-06-10T22:41:38;8.17;;;4.40;;
21339;SDS011;10828;47.064;15.422;2023-06-10T22:44:04;8.27;;;4.80;;
21339;SDS011;10828;47.064;15.422;2023-06-10T22:46:33;9.30;;;5.40;;
21339;SDS011;10828;47.064;15.422;2023-06-10T22:49:01;12.67;;;5.00;;
21339;SDS011;10828;47.064;15.422;2023-06-10T22:51:26;9.17;;;4.70;;
21339;SDS011;10828;47.064;15.422;2023-06-10T22:53:59;7.30;;;4.27;;
21339;SDS011;10828;47.064;15.422;2023-06-10T22:56:25;8.63;;;4.60;;
21339;SDS011;10828;47.064;15.422;2023-06-10T22:58:51;9.90;;;5.20;;
21339;SDS011;10828;47.064;15.422;2023-06-10T23:01:17;9.23;;;5.17;;
21339;SDS011;10828;47.064;15.422;2023-06-10T23:03:47;9.87;;;5.23;;
21339;SDS011;10828;47.064;15.422;2023-06-10T23:06:16;8.70;;;5.53;;
21339;SDS011;10828;47.064;15.422;2023-06-10T23:08:49;10.40;;;6.23;;
21339;SDS011;10828;47.064;15.422;2023-06-10T23:11:16;11.47;;;6.30;;
21339;SDS011;10828;47.064;15.422;2023-06-10T23:13:45;17.77;;;6.70;;
21339;SDS011;10828;47.064;15.422;2023-06-10T23:16:11;9.40;;;6.33;;
21339;SDS011;10828;47.064;15.422;2023-06-10T23:18:43;17.70;;;6.13;;
21339;SDS011;10828;47.064;15.422;2023-06-10T23:21:10;12.60;;;6.57;;
21339;SDS011;10828;47.064;15.422;2023-06-10T23:23:37;10.90;;;6.33;;
21339;SDS011;10828;47.064;15.422;2023-06-10T23:26:06;13.93;;;7.20;;
21339;SDS011;10828;47.064;15.422;2023-06-10T23:28:34;9.20;;;5.60;;
21339;SDS011;10828;47.064;15.422;2023-06-10T23:31:04;11.37;;;5.87;;
21339;SDS011;10828;47.064;15.422;2023-06-10T23:33:31;11.10;;;6.93;;
21339;SDS011;10828;47.064;15.422;2023-06-10T23:36:04;10.50;;;6.27;;
21339;SDS011;10828;47.064;15.422;2023-06-10T23:38:30;13.23;;;6.80;;
21339;SDS011;10828;47.064;15.422;2023-06-10T23:40:56;11.90;;;6.10;;
21339;SDS011;10828;47.064;15.422;2023-06-10T23:43:22;8.90;;;5.47;;
21339;SDS011;10828;47.064;15.422;2023-06-10T23:45:50;11.03;;;5.80;;
21339;SDS011;10828;47.064;15.422;2023-06-10T23:48:15;11.80;;;5.63;;
21339;SDS011;10828;47.064;15.422;2023-06-10T23:50:42;11.50;;;5.67;;
21339;SDS011;10828;47.064;15.422;2023-06-10T23:53:14;9.47;;;5.50;;
21339;SDS011;10828;47.064;15.422;2023-06-10T23:55:43;9.63;;;5.13;;
21339;SDS011;10828;47.064;15.422;2023-06-10T23:58:11;10.03;;;5.80;;
